Terminal Aerodrome Forecast
Issued by NWS

Home | Current Version | Previous Version | Text Only | Print | Product List | Glossary On
Versions: 1 2 3 4 5 6 7 8 9 10 11 12 13 14 15
000
FTUS42 KMLB 240539
TAFTIX
TAF
KTIX 240539Z 2406/2506 17004KT P6SM SCT070 SCT250
     FM241400 20006KT P6SM SCT025 SCT100 SCT250
     FM241800 12007KT P6SM VCTS SCT040CB SCT080 SCT250
     FM250000 18005KT P6SM SCT040 BKN080
      AMD NOT SKED TIL 241100=

USA.gov is the U.S. government's official web portal to all federal, state and local government web resources and services.